createdAt,value
2022-11-22T00:01:26.970Z,2.30
2022-11-22T00:04:12.437Z,2.47
2022-11-22T00:06:58.021Z,2.50
2022-11-22T00:09:43.258Z,1.48
2022-11-22T00:12:28.953Z,3.15
2022-11-22T00:15:14.481Z,0.93
2022-11-22T00:18:01.243Z,1.42
2022-11-22T00:20:46.824Z,2.20
2022-11-22T00:23:32.629Z,1.33
2022-11-22T00:26:17.839Z,2.05
2022-11-22T00:29:03.491Z,2.78
2022-11-22T00:31:48.972Z,1.40
2022-11-22T00:34:34.742Z,1.70
2022-11-22T00:37:20.012Z,2.42
2022-11-22T00:40:06.450Z,1.52
2022-11-22T00:42:51.805Z,1.50
2022-11-22T00:45:37.359Z,1.40
2022-11-22T00:48:23.005Z,1.25
2022-11-22T00:51:08.584Z,1.38
2022-11-22T00:53:54.059Z,1.50
2022-11-22T00:56:39.522Z,1.40
2022-11-22T00:59:25.011Z,1.38
2022-11-22T01:02:10.499Z,1.10
2022-11-22T01:04:55.966Z,1.45
2022-11-22T01:07:41.522Z,1.08
2022-11-22T01:10:27.115Z,1.40
2022-11-22T01:13:12.500Z,2.28
2022-11-22T01:16:07.160Z,1.33
2022-11-22T01:18:52.865Z,1.38
2022-11-22T01:21:38.293Z,1.65
2022-11-22T01:24:24.086Z,1.38
2022-11-22T01:27:09.827Z,1.67
2022-11-22T01:29:55.299Z,0.95
2022-11-22T01:32:40.840Z,1.10
2022-11-22T01:35:26.157Z,1.80
2022-11-22T01:38:11.996Z,1.25
2022-11-22T01:40:57.476Z,1.25
2022-11-22T01:43:43.175Z,0.90
2022-11-22T01:46:37.195Z,1.42
2022-11-22T01:49:51.676Z,1.38
2022-11-22T01:52:37.492Z,0.98
2022-11-22T01:55:23.937Z,1.70
2022-11-22T01:58:10.602Z,1.00
2022-11-22T02:00:56.369Z,1.13
2022-11-22T02:03:44.972Z,3.22
2022-11-22T02:06:46.901Z,0.90
2022-11-22T02:09:33.370Z,0.70
2022-11-22T02:12:20.833Z,0.95
2022-11-22T02:15:08.152Z,1.02
2022-11-22T02:17:53.436Z,1.20
2022-11-22T02:20:39.938Z,1.13
2022-11-22T02:23:43.535Z,1.85
2022-11-22T02:26:29.981Z,1.10
2022-11-22T02:29:15.986Z,1.02
2022-11-22T02:32:01.470Z,1.00
2022-11-22T02:34:51.368Z,1.17
2022-11-22T02:37:36.945Z,0.95
2022-11-22T02:40:23.600Z,1.30
2022-11-22T02:43:13.517Z,1.02
2022-11-22T02:46:06.712Z,0.85
2022-11-22T02:48:53.197Z,0.75
2022-11-22T02:51:38.524Z,1.10
2022-11-22T02:54:24.043Z,0.93
2022-11-22T02:57:09.596Z,0.82
2022-11-22T02:59:55.091Z,0.90
2022-11-22T03:02:40.424Z,1.15
2022-11-22T03:05:26.142Z,1.10
2022-11-22T03:08:11.452Z,0.88
2022-11-22T03:11:00.034Z,1.33
2022-11-22T03:13:45.504Z,0.90
2022-11-22T03:16:31.945Z,0.80
2022-11-22T03:19:17.602Z,1.92
2022-11-22T03:22:02.879Z,0.98
2022-11-22T03:24:48.393Z,0.90
2022-11-22T03:27:33.890Z,0.90
2022-11-22T03:30:19.190Z,1.38
2022-11-22T03:33:04.441Z,1.13
2022-11-22T03:35:49.937Z,2.30
2022-11-22T03:38:36.014Z,1.63
2022-11-22T03:41:21.189Z,0.80
2022-11-22T03:44:06.818Z,2.33
2022-11-22T03:46:52.564Z,1.67
2022-11-22T03:49:37.785Z,1.25
2022-11-22T03:52:23.137Z,1.20
2022-11-22T03:55:09.108Z,1.00
2022-11-22T03:57:54.686Z,0.80
2022-11-22T04:00:40.174Z,1.17
2022-11-22T04:03:25.917Z,1.52
2022-11-22T04:06:11.598Z,0.80
2022-11-22T04:08:56.949Z,1.50
2022-11-22T04:11:42.409Z,0.85
2022-11-22T04:14:46.286Z,1.20
2022-11-22T04:17:41.328Z,1.17
2022-11-22T04:20:48.576Z,1.33
2022-11-22T04:23:34.507Z,1.00
2022-11-22T04:26:19.881Z,1.10
2022-11-22T04:29:10.026Z,1.00
2022-11-22T04:32:14.509Z,0.65
2022-11-22T04:34:59.948Z,0.90
2022-11-22T04:37:51.586Z,1.08
2022-11-22T04:40:39.907Z,0.88
2022-11-22T04:43:45.795Z,0.88
2022-11-22T04:46:31.503Z,1.45
2022-11-22T04:49:16.756Z,1.10
2022-11-22T04:52:21.086Z,1.08
2022-11-22T04:55:06.780Z,1.10
2022-11-22T04:57:57.499Z,0.85
2022-11-22T05:00:45.268Z,1.73
2022-11-22T05:03:30.766Z,1.23
2022-11-22T05:06:15.972Z,1.00
2022-11-22T05:09:01.577Z,1.10
2022-11-22T05:11:46.775Z,1.70
2022-11-22T05:14:32.293Z,1.10
2022-11-22T05:17:17.858Z,1.40
2022-11-22T05:20:03.907Z,0.90
2022-11-22T05:23:07.794Z,1.05
2022-11-22T05:28:39.573Z,0.88
2022-11-22T05:31:27.448Z,1.60
2022-11-22T05:34:12.919Z,1.42
2022-11-22T05:36:59.092Z,0.77
2022-11-22T05:39:44.478Z,0.77
2022-11-22T05:42:29.873Z,2.53
2022-11-22T05:45:15.433Z,0.90
2022-11-22T05:48:00.846Z,1.02
2022-11-22T05:50:46.493Z,0.98
2022-11-22T05:53:32.253Z,1.13
2022-11-22T05:56:20.656Z,0.85
2022-11-22T05:59:06.368Z,0.73
2022-11-22T06:01:52.012Z,1.00
2022-11-22T06:04:37.544Z,1.33
2022-11-22T06:07:23.485Z,2.20
2022-11-22T06:10:09.663Z,1.00
2022-11-22T06:12:55.556Z,0.75
2022-11-22T06:15:41.114Z,0.70
2022-11-22T06:18:27.040Z,0.93
2022-11-22T06:21:15.508Z,0.90
2022-11-22T06:24:01.171Z,1.05
2022-11-22T06:26:46.704Z,1.55
2022-11-22T06:29:32.664Z,0.60
2022-11-22T06:32:18.317Z,0.73
2022-11-22T06:35:04.471Z,0.77
2022-11-22T06:37:50.438Z,1.80
2022-11-22T06:40:35.821Z,1.65
2022-11-22T06:43:21.272Z,1.08
2022-11-22T06:46:08.116Z,1.10
2022-11-22T06:48:54.037Z,1.00
2022-11-22T06:51:39.400Z,0.80
2022-11-22T06:54:24.796Z,1.00
2022-11-22T06:57:14.533Z,0.40
2022-11-22T07:00:00.163Z,0.90
2022-11-22T07:02:45.683Z,0.77
2022-11-22T07:05:31.361Z,0.88
2022-11-22T07:08:17.006Z,0.70
2022-11-22T07:11:13.217Z,1.05
2022-11-22T07:14:07.717Z,1.27
2022-11-22T07:16:54.928Z,1.00
2022-11-22T07:19:40.167Z,0.77
2022-11-22T07:22:29.378Z,0.93
2022-11-22T07:25:14.938Z,1.20
2022-11-22T07:28:00.486Z,0.68
2022-11-22T07:30:46.198Z,0.90
2022-11-22T07:33:34.202Z,2.45
2022-11-22T07:36:21.854Z,1.10
2022-11-22T07:39:10.175Z,1.10
2022-11-22T07:41:55.792Z,0.80
2022-11-22T07:44:41.388Z,0.95
2022-11-22T07:47:27.866Z,0.90
2022-11-22T07:50:16.425Z,1.25
2022-11-22T07:53:02.777Z,0.85
2022-11-22T07:55:52.377Z,0.70
2022-11-22T07:58:38.974Z,1.10
2022-11-22T08:01:24.902Z,0.90
2022-11-22T08:04:10.415Z,1.40
2022-11-22T08:06:57.945Z,1.83
2022-11-22T08:09:43.532Z,0.50
2022-11-22T08:12:28.834Z,2.50
2022-11-22T08:15:15.749Z,1.00
2022-11-22T08:18:01.909Z,1.58
2022-11-22T08:20:47.462Z,1.27
2022-11-22T08:23:33.144Z,1.33
2022-11-22T08:26:21.040Z,0.80
2022-11-22T08:29:13.840Z,1.50
2022-11-22T08:32:00.264Z,2.20
2022-11-22T08:34:47.441Z,1.38
2022-11-22T08:37:33.203Z,1.27
2022-11-22T08:40:18.511Z,1.70
2022-11-22T08:43:04.330Z,1.05
2022-11-22T08:45:55.444Z,1.65
2022-11-22T08:48:41.254Z,1.77
2022-11-22T08:51:26.870Z,1.95
2022-11-22T08:54:13.484Z,1.67
2022-11-22T08:56:59.331Z,1.00
2022-11-22T08:59:46.880Z,1.85
2022-11-22T09:02:33.889Z,0.77
2022-11-22T09:05:19.149Z,1.00
2022-11-22T09:11:15.721Z,0.90
2022-11-22T09:14:01.109Z,0.82
2022-11-22T09:16:46.803Z,1.23
2022-11-22T09:19:32.523Z,0.95
2022-11-22T09:22:18.444Z,1.17
2022-11-22T09:25:07.537Z,1.38
2022-11-22T09:27:53.147Z,1.15
2022-11-22T09:30:38.786Z,0.70
2022-11-22T09:33:24.024Z,1.33
2022-11-22T09:36:22.862Z,0.95
2022-11-22T09:39:09.186Z,0.95
2022-11-22T09:42:17.768Z,0.88
2022-11-22T09:45:38.190Z,0.80
2022-11-22T09:49:10.397Z,0.80
2022-11-22T09:52:19.534Z,1.10
2022-11-22T09:55:12.209Z,0.90
2022-11-22T09:58:19.761Z,0.93
2022-11-22T10:01:17.559Z,1.15
2022-11-22T10:04:05.417Z,0.80
2022-11-22T10:07:00.516Z,0.77
2022-11-22T10:10:04.786Z,0.82
2022-11-22T10:13:10.699Z,0.70
2022-11-22T10:16:30.506Z,0.70
2022-11-22T10:19:22.177Z,1.00
2022-11-22T10:22:15.082Z,0.88
2022-11-22T10:25:23.427Z,0.70
2022-11-22T10:28:35.631Z,1.00
2022-11-22T10:31:46.778Z,0.57
2022-11-22T10:34:35.585Z,1.30
2022-11-22T10:37:38.460Z,1.30
2022-11-22T10:40:55.224Z,1.20
2022-11-22T10:44:04.143Z,0.90
2022-11-22T10:46:57.420Z,1.13
2022-11-22T10:49:50.309Z,0.95
2022-11-22T10:53:04.473Z,0.70
2022-11-22T10:56:00.896Z,1.58
2022-11-22T10:58:49.040Z,1.00
2022-11-22T11:01:52.538Z,1.02
2022-11-22T11:04:40.063Z,1.38
2022-11-22T11:07:26.596Z,1.75
2022-11-22T11:10:40.579Z,1.83
2022-11-22T11:13:31.707Z,1.45
2022-11-22T11:16:28.768Z,1.60
2022-11-22T11:19:19.057Z,1.27
2022-11-22T11:22:08.186Z,1.38
2022-11-22T11:24:53.577Z,1.50
2022-11-22T11:27:42.552Z,1.15
2022-11-22T11:30:28.380Z,1.30
2022-11-22T11:33:27.661Z,1.35
2022-11-22T11:36:22.187Z,1.77
2022-11-22T11:39:20.827Z,1.50
2022-11-22T11:42:34.681Z,1.33
2022-11-22T11:45:30.442Z,1.40
2022-11-22T11:48:29.507Z,1.02
2022-11-22T11:51:19.678Z,1.55
2022-11-22T11:54:18.729Z,1.42
2022-11-22T11:57:05.711Z,1.40
2022-11-22T11:59:53.226Z,1.40
2022-11-22T12:02:46.358Z,2.00
2022-11-22T12:05:33.374Z,2.22
2022-11-22T12:08:37.329Z,1.27
2022-11-22T12:11:37.420Z,1.63
2022-11-22T12:14:42.690Z,2.28
2022-11-22T12:17:36.961Z,1.25
2022-11-22T12:20:28.153Z,1.50
2022-11-22T12:23:23.785Z,1.75
2022-11-22T12:26:08.960Z,1.58
2022-11-22T12:28:55.291Z,1.52
2022-11-22T12:32:01.634Z,1.80
2022-11-22T12:34:59.770Z,1.75
2022-11-22T12:38:01.386Z,1.30
2022-11-22T12:41:00.222Z,1.77
2022-11-22T12:43:56.988Z,1.45
2022-11-22T12:46:51.674Z,1.25
2022-11-22T12:49:45.784Z,1.60
2022-11-22T12:52:55.180Z,1.55
2022-11-22T12:56:16.206Z,1.60
2022-11-22T12:59:10.723Z,2.10
2022-11-22T13:02:17.192Z,1.67
2022-11-22T13:05:22.116Z,1.67
2022-11-22T13:08:16.310Z,1.90
2022-11-22T13:11:33.980Z,1.42
2022-11-22T13:14:27.481Z,1.65
2022-11-22T13:17:15.668Z,1.40
2022-11-22T13:20:08.359Z,1.40
2022-11-22T13:23:00.267Z,2.40
2022-11-22T13:25:55.698Z,2.63
2022-11-22T13:28:42.271Z,2.05
2022-11-22T13:31:28.113Z,1.75
2022-11-22T13:34:26.590Z,1.63
2022-11-22T13:37:15.540Z,1.70
2022-11-22T13:40:30.599Z,1.63
2022-11-22T13:43:22.283Z,1.50
2022-11-22T13:46:46.699Z,2.13
2022-11-22T13:49:46.631Z,1.70
2022-11-22T13:52:52.574Z,1.35
2022-11-22T13:55:42.269Z,1.80
2022-11-22T13:58:50.291Z,1.33
2022-11-22T14:01:36.442Z,1.25
2022-11-22T14:04:31.816Z,1.55
2022-11-22T14:07:39.633Z,1.00
2022-11-22T14:10:36.996Z,1.25
2022-11-22T14:13:52.296Z,1.02
2022-11-22T14:16:54.702Z,1.63
2022-11-22T14:20:03.596Z,1.00
2022-11-22T14:23:40.067Z,1.60
2022-11-22T14:26:44.846Z,1.35
2022-11-22T14:29:53.480Z,1.73
2022-11-22T14:32:53.179Z,1.30
2022-11-22T14:35:59.141Z,1.20
2022-11-22T14:38:45.265Z,1.70
2022-11-22T14:41:36.402Z,1.58
2022-11-22T14:44:35.316Z,1.20
2022-11-22T14:47:21.917Z,1.50
2022-11-22T14:50:34.324Z,1.13
2022-11-22T14:54:04.639Z,1.38
2022-11-22T14:56:50.815Z,1.90
2022-11-22T15:00:15.089Z,1.10
2022-11-22T15:03:03.564Z,1.42
2022-11-22T15:09:21.957Z,0.98
2022-11-22T15:09:54.380Z,1.55
2022-11-22T15:12:45.568Z,2.10
2022-11-22T15:59:58.369Z,1.80
2022-11-22T16:02:49.983Z,3.28
2022-11-22T16:06:08.697Z,3.88
2022-11-22T16:08:51.215Z,2.72
2022-11-22T16:14:48.783Z,2.58
2022-11-22T16:17:37.952Z,1.90
2022-11-22T16:20:23.633Z,2.83
2022-11-22T16:23:09.537Z,2.97
2022-11-22T16:26:11.961Z,2.72
2022-11-22T16:29:35.552Z,2.65
2022-11-22T16:32:21.398Z,3.25
2022-11-22T16:35:28.546Z,2.90
2022-11-22T16:38:15.124Z,3.08
2022-11-22T16:41:01.739Z,3.58
2022-11-22T16:43:51.625Z,3.78
2022-11-22T16:46:36.754Z,4.60
2022-11-22T16:49:22.849Z,3.92
2022-11-22T16:52:12.616Z,3.80
2022-11-22T16:54:58.317Z,3.42
2022-11-22T16:57:44.504Z,3.92
2022-11-22T17:00:30.540Z,3.67
2022-11-22T17:03:20.967Z,3.90
2022-11-22T17:06:10.465Z,3.40
2022-11-22T17:08:59.843Z,5.07
2022-11-22T17:11:46.602Z,4.25
2022-11-22T17:14:32.562Z,4.13
2022-11-22T17:17:19.166Z,4.68
2022-11-22T17:20:15.984Z,5.15
2022-11-22T17:23:03.996Z,3.53
2022-11-22T17:25:49.797Z,3.97
2022-11-22T17:28:36.113Z,3.88
2022-11-22T17:31:23.356Z,4.32
2022-11-22T17:34:09.796Z,4.28
2022-11-22T17:36:55.677Z,4.35
2022-11-22T17:39:41.310Z,4.95
2022-11-22T17:42:26.909Z,5.50
2022-11-22T17:45:12.517Z,4.97
2022-11-22T17:47:58.027Z,4.85
2022-11-22T17:50:48.065Z,5.38
2022-11-22T17:53:33.829Z,6.88
2022-11-22T17:56:19.353Z,6.05
2022-11-22T17:59:04.827Z,6.30
2022-11-22T18:01:50.455Z,5.20
2022-11-22T18:04:36.266Z,3.90
2022-11-22T18:07:23.943Z,4.78
2022-11-22T18:10:10.293Z,4.65
2022-11-22T18:13:19.711Z,5.30
2022-11-22T18:16:03.661Z,5.20
2022-11-22T18:18:58.106Z,4.13
2022-11-22T18:21:43.817Z,4.97
2022-11-22T18:24:29.240Z,4.38
2022-11-22T18:27:15.062Z,4.60
2022-11-22T18:30:00.372Z,4.38
2022-11-22T18:32:45.918Z,4.32
2022-11-22T18:35:31.709Z,3.58
2022-11-22T18:38:17.442Z,3.85
2022-11-22T18:41:04.366Z,4.80
2022-11-22T18:43:49.956Z,5.00
2022-11-22T18:46:35.119Z,4.20
2022-11-22T18:49:20.744Z,4.43
2022-11-22T18:52:06.350Z,4.03
2022-11-22T18:54:52.328Z,4.32
2022-11-22T18:57:37.801Z,4.40
2022-11-22T19:00:23.203Z,4.10
2022-11-22T19:03:11.501Z,4.65
2022-11-22T19:05:56.738Z,4.70
2022-11-22T19:08:44.041Z,4.60
2022-11-22T19:11:32.150Z,4.70
2022-11-22T19:14:17.783Z,4.28
2022-11-22T19:17:03.357Z,5.40
2022-11-22T19:19:48.638Z,5.35
2022-11-22T19:22:34.092Z,5.70
2022-11-22T19:25:19.571Z,7.00
2022-11-22T19:28:05.474Z,6.18
2022-11-22T19:30:50.745Z,6.90
2022-11-22T19:33:37.048Z,6.65
2022-11-22T19:36:27.898Z,6.25
2022-11-22T19:39:19.944Z,6.97
2022-11-22T19:42:05.410Z,7.45
2022-11-22T19:44:51.132Z,5.63
2022-11-22T19:47:36.946Z,6.68
2022-11-22T19:50:22.216Z,6.78
2022-11-22T19:53:08.442Z,7.57
2022-11-22T19:55:53.829Z,7.32
2022-11-22T19:58:39.382Z,6.60
2022-11-22T20:01:26.480Z,6.70
2022-11-22T20:04:14.233Z,7.38
2022-11-22T20:06:59.925Z,7.47
2022-11-22T20:09:45.364Z,9.30
2022-11-22T20:12:31.001Z,7.00
2022-11-22T20:15:17.202Z,7.90
2022-11-22T20:18:02.309Z,9.90
2022-11-22T20:20:47.854Z,8.70
2022-11-22T20:23:33.728Z,7.47
2022-11-22T20:26:20.380Z,7.65
2022-11-22T20:29:08.701Z,6.93
2022-11-22T20:31:54.957Z,6.43
2022-11-22T20:34:40.558Z,6.88
2022-11-22T20:37:26.148Z,7.32
2022-11-22T20:40:11.630Z,6.78
2022-11-22T20:42:57.095Z,6.63
2022-11-22T20:45:42.833Z,6.93
2022-11-22T20:48:28.913Z,6.90
2022-11-22T20:51:19.093Z,6.18
2022-11-22T20:54:04.989Z,6.25
2022-11-22T20:56:50.225Z,5.88
2022-11-22T20:59:35.940Z,7.20
2022-11-22T21:02:21.605Z,6.90
2022-11-22T21:05:08.002Z,5.70
2022-11-22T21:07:53.665Z,7.25
2022-11-22T21:10:39.115Z,7.07
2022-11-22T21:13:24.714Z,6.03
2022-11-22T21:16:22.776Z,6.38
2022-11-22T21:19:09.390Z,5.68
2022-11-22T21:21:54.879Z,4.35
2022-11-22T21:24:40.422Z,5.30
2022-11-22T21:27:25.916Z,5.25
2022-11-22T21:30:11.951Z,5.10
2022-11-22T21:32:57.356Z,4.65
2022-11-22T21:35:45.650Z,5.50
2022-11-22T21:38:34.717Z,5.20
2022-11-22T21:44:27.169Z,4.75
2022-11-22T21:47:12.680Z,5.30
2022-11-22T21:49:58.061Z,5.30
2022-11-22T21:52:43.659Z,5.40
2022-11-22T21:55:29.389Z,6.03
2022-11-22T21:58:14.826Z,7.43
2022-11-22T22:01:08.256Z,6.82
2022-11-22T22:03:56.707Z,6.50
2022-11-22T22:06:46.058Z,7.18
2022-11-22T22:09:31.776Z,7.45
2022-11-22T22:12:17.564Z,6.35
2022-11-22T22:15:03.310Z,8.00
2022-11-22T22:17:51.891Z,7.63
2022-11-22T22:20:37.536Z,6.93
2022-11-22T22:23:24.294Z,6.95
2022-11-22T22:26:15.697Z,7.47
2022-11-22T22:29:00.952Z,6.97
2022-11-22T22:31:46.646Z,7.72
2022-11-22T22:34:31.928Z,8.25
2022-11-22T22:37:17.766Z,8.05
2022-11-22T22:40:03.463Z,7.93
2022-11-22T22:42:48.638Z,7.68
2022-11-22T22:45:35.545Z,6.85
2022-11-22T22:48:21.029Z,8.32
2022-11-22T22:51:10.458Z,7.93
2022-11-22T22:53:59.409Z,7.18
2022-11-22T22:56:45.009Z,9.15
2022-11-22T22:59:30.485Z,7.03
2022-11-22T23:02:16.201Z,7.18
2022-11-22T23:05:01.877Z,8.45
2022-11-22T23:07:47.441Z,6.97
2022-11-22T23:10:33.370Z,6.97
2022-11-22T23:13:18.771Z,7.07
2022-11-22T23:16:06.455Z,7.43
2022-11-22T23:18:51.900Z,6.72
2022-11-22T23:21:37.734Z,6.70
2022-11-22T23:24:23.308Z,7.50
2022-11-22T23:27:08.896Z,7.57
2022-11-22T23:29:54.395Z,7.50
2022-11-22T23:32:39.953Z,7.32
2022-11-22T23:35:25.408Z,9.23
2022-11-22T23:38:10.755Z,7.80
2022-11-22T23:40:56.279Z,8.13
2022-11-22T23:43:42.189Z,7.88
2022-11-22T23:46:28.782Z,8.18
2022-11-22T23:49:14.321Z,8.13
2022-11-22T23:51:59.847Z,7.13
2022-11-22T23:54:45.424Z,7.45
2022-11-22T23:57:30.844Z,8.00
